sensor_id;sensor_type;location;lat;lon;timestamp;P1;durP1;ratioP1;P2;durP2;ratioP2
4198;SDS011;2113;50.946;14.610;2023-11-21T00:01:22;6.70;;;3.90;;
4198;SDS011;2113;50.946;14.610;2023-11-21T00:03:52;9.00;;;3.70;;
4198;SDS011;2113;50.946;14.610;2023-11-21T00:06:21;6.38;;;3.55;;
4198;SDS011;2113;50.946;14.610;2023-11-21T00:08:49;9.07;;;3.60;;
4198;SDS011;2113;50.946;14.610;2023-11-21T00:11:17;6.40;;;3.58;;
4198;SDS011;2113;50.946;14.610;2023-11-21T00:13:46;4.60;;;3.17;;
4198;SDS011;2113;50.946;14.610;2023-11-21T00:16:16;10.88;;;3.75;;
4198;SDS011;2113;50.946;14.610;2023-11-21T00:18:45;5.10;;;3.13;;
4198;SDS011;2113;50.946;14.610;2023-11-21T00:21:15;6.25;;;2.88;;
4198;SDS011;2113;50.946;14.610;2023-11-21T00:23:43;6.43;;;3.38;;
4198;SDS011;2113;50.946;14.610;2023-11-21T00:26:11;5.03;;;3.15;;
4198;SDS011;2113;50.946;14.610;2023-11-21T00:28:45;6.15;;;3.35;;
4198;SDS011;2113;50.946;14.610;2023-11-21T00:31:13;7.72;;;2.83;;
4198;SDS011;2113;50.946;14.610;2023-11-21T00:33:42;5.10;;;2.85;;
4198;SDS011;2113;50.946;14.610;2023-11-21T00:36:11;8.45;;;3.03;;
4198;SDS011;2113;50.946;14.610;2023-11-21T00:38:41;4.97;;;2.88;;
4198;SDS011;2113;50.946;14.610;2023-11-21T00:41:09;6.55;;;3.38;;
4198;SDS011;2113;50.946;14.610;2023-11-21T00:43:37;4.50;;;2.88;;
4198;SDS011;2113;50.946;14.610;2023-11-21T00:46:06;10.73;;;3.50;;
4198;SDS011;2113;50.946;14.610;2023-11-21T00:48:34;6.15;;;2.72;;
4198;SDS011;2113;50.946;14.610;2023-11-21T00:51:03;6.75;;;3.65;;
4198;SDS011;2113;50.946;14.610;2023-11-21T00:53:32;7.43;;;3.20;;
4198;SDS011;2113;50.946;14.610;2023-11-21T00:56:02;6.85;;;4.20;;
4198;SDS011;2113;50.946;14.610;2023-11-21T00:58:31;9.40;;;4.20;;
4198;SDS011;2113;50.946;14.610;2023-11-21T01:00:59;6.05;;;3.80;;
4198;SDS011;2113;50.946;14.610;2023-11-21T01:03:28;6.38;;;3.22;;
4198;SDS011;2113;50.946;14.610;2023-11-21T01:05:56;7.95;;;2.90;;
4198;SDS011;2113;50.946;14.610;2023-11-21T01:08:24;7.50;;;3.72;;
4198;SDS011;2113;50.946;14.610;2023-11-21T01:10:53;10.68;;;4.60;;
4198;SDS011;2113;50.946;14.610;2023-11-21T01:13:22;8.93;;;3.97;;
4198;SDS011;2113;50.946;14.610;2023-11-21T01:15:55;7.00;;;3.30;;
4198;SDS011;2113;50.946;14.610;2023-11-21T01:23:39;6.32;;;3.00;;
4198;SDS011;2113;50.946;14.610;2023-11-21T01:26:08;8.75;;;3.50;;
4198;SDS011;2113;50.946;14.610;2023-11-21T01:28:37;6.82;;;2.85;;
4198;SDS011;2113;50.946;14.610;2023-11-21T01:31:05;7.25;;;3.13;;
4198;SDS011;2113;50.946;14.610;2023-11-21T01:33:35;8.57;;;3.78;;
4198;SDS011;2113;50.946;14.610;2023-11-21T01:36:03;5.72;;;3.70;;
4198;SDS011;2113;50.946;14.610;2023-11-21T01:38:32;13.38;;;3.08;;
4198;SDS011;2113;50.946;14.610;2023-11-21T01:41:01;6.10;;;3.40;;
4198;SDS011;2113;50.946;14.610;2023-11-21T01:43:29;8.63;;;3.75;;
4198;SDS011;2113;50.946;14.610;2023-11-21T01:46:00;5.65;;;3.50;;
4198;SDS011;2113;50.946;14.610;2023-11-21T01:48:28;7.50;;;3.70;;
4198;SDS011;2113;50.946;14.610;2023-11-21T01:50:57;11.50;;;4.07;;
4198;SDS011;2113;50.946;14.610;2023-11-21T01:53:27;7.75;;;3.80;;
4198;SDS011;2113;50.946;14.610;2023-11-21T01:55:56;5.45;;;3.97;;
4198;SDS011;2113;50.946;14.610;2023-11-21T01:58:26;6.68;;;3.70;;
4198;SDS011;2113;50.946;14.610;2023-11-21T02:00:54;7.25;;;3.47;;
4198;SDS011;2113;50.946;14.610;2023-11-21T02:03:24;7.18;;;4.10;;
4198;SDS011;2113;50.946;14.610;2023-11-21T02:05:53;6.28;;;3.95;;
4198;SDS011;2113;50.946;14.610;2023-11-21T02:08:22;8.73;;;4.05;;
4198;SDS011;2113;50.946;14.610;2023-11-21T02:10:50;8.18;;;4.05;;
4198;SDS011;2113;50.946;14.610;2023-11-21T02:13:18;17.55;;;5.38;;
4198;SDS011;2113;50.946;14.610;2023-11-21T02:15:48;9.57;;;4.22;;
4198;SDS011;2113;50.946;14.610;2023-11-21T02:18:19;6.38;;;4.47;;
4198;SDS011;2113;50.946;14.610;2023-11-21T02:20:50;7.25;;;5.22;;
4198;SDS011;2113;50.946;14.610;2023-11-21T02:23:19;8.73;;;4.80;;
4198;SDS011;2113;50.946;14.610;2023-11-21T02:25:49;9.43;;;4.72;;
4198;SDS011;2113;50.946;14.610;2023-11-21T02:28:18;6.43;;;3.80;;
4198;SDS011;2113;50.946;14.610;2023-11-21T02:30:52;9.93;;;4.07;;
4198;SDS011;2113;50.946;14.610;2023-11-21T02:33:22;9.63;;;4.43;;
4198;SDS011;2113;50.946;14.610;2023-11-21T02:35:51;9.63;;;4.05;;
4198;SDS011;2113;50.946;14.610;2023-11-21T02:38:23;12.45;;;4.78;;
4198;SDS011;2113;50.946;14.610;2023-11-21T02:40:51;7.50;;;4.32;;
4198;SDS011;2113;50.946;14.610;2023-11-21T02:43:20;11.02;;;4.35;;
4198;SDS011;2113;50.946;14.610;2023-11-21T02:45:48;6.70;;;4.00;;
4198;SDS011;2113;50.946;14.610;2023-11-21T02:48:16;7.55;;;4.55;;
4198;SDS011;2113;50.946;14.610;2023-11-21T02:50:44;11.52;;;5.40;;
4198;SDS011;2113;50.946;14.610;2023-11-21T02:53:13;7.15;;;5.10;;
4198;SDS011;2113;50.946;14.610;2023-11-21T02:55:43;8.25;;;4.72;;
4198;SDS011;2113;50.946;14.610;2023-11-21T02:58:11;6.75;;;4.70;;
4198;SDS011;2113;50.946;14.610;2023-11-21T03:00:39;9.52;;;4.95;;
4198;SDS011;2113;50.946;14.610;2023-11-21T03:03:08;9.05;;;5.05;;
4198;SDS011;2113;50.946;14.610;2023-11-21T03:05:36;9.45;;;4.90;;
4198;SDS011;2113;50.946;14.610;2023-11-21T03:08:06;8.88;;;4.90;;
4198;SDS011;2113;50.946;14.610;2023-11-21T03:10:34;8.40;;;5.10;;
4198;SDS011;2113;50.946;14.610;2023-11-21T03:13:04;10.23;;;5.50;;
4198;SDS011;2113;50.946;14.610;2023-11-21T03:15:32;7.70;;;4.50;;
4198;SDS011;2113;50.946;14.610;2023-11-21T03:18:01;7.90;;;4.97;;
4198;SDS011;2113;50.946;14.610;2023-11-21T03:20:32;10.63;;;5.63;;
4198;SDS011;2113;50.946;14.610;2023-11-21T03:23:01;13.63;;;5.28;;
4198;SDS011;2113;50.946;14.610;2023-11-21T03:25:30;12.85;;;5.28;;
4198;SDS011;2113;50.946;14.610;2023-11-21T03:27:58;15.18;;;5.53;;
4198;SDS011;2113;50.946;14.610;2023-11-21T03:30:28;13.25;;;5.90;;
4198;SDS011;2113;50.946;14.610;2023-11-21T03:32:57;18.50;;;6.30;;
4198;SDS011;2113;50.946;14.610;2023-11-21T03:35:25;13.93;;;5.57;;
4198;SDS011;2113;50.946;14.610;2023-11-21T03:37:54;11.05;;;5.78;;
4198;SDS011;2113;50.946;14.610;2023-11-21T03:40:23;19.38;;;6.20;;
4198;SDS011;2113;50.946;14.610;2023-11-21T03:42:51;10.23;;;5.53;;
4198;SDS011;2113;50.946;14.610;2023-11-21T03:45:19;10.50;;;4.90;;
4198;SDS011;2113;50.946;14.610;2023-11-21T03:47:49;9.68;;;5.45;;
4198;SDS011;2113;50.946;14.610;2023-11-21T03:50:17;15.70;;;7.20;;
4198;SDS011;2113;50.946;14.610;2023-11-21T03:52:46;22.02;;;6.53;;
4198;SDS011;2113;50.946;14.610;2023-11-21T03:55:14;14.93;;;6.95;;
4198;SDS011;2113;50.946;14.610;2023-11-21T03:57:43;13.55;;;5.57;;
4198;SDS011;2113;50.946;14.610;2023-11-21T04:00:12;11.02;;;5.45;;
4198;SDS011;2113;50.946;14.610;2023-11-21T04:02:40;15.60;;;5.55;;
4198;SDS011;2113;50.946;14.610;2023-11-21T04:05:10;16.65;;;7.30;;
4198;SDS011;2113;50.946;14.610;2023-11-21T04:07:39;16.60;;;6.53;;
4198;SDS011;2113;50.946;14.610;2023-11-21T04:10:07;11.05;;;6.15;;
4198;SDS011;2113;50.946;14.610;2023-11-21T04:12:39;11.30;;;6.35;;
4198;SDS011;2113;50.946;14.610;2023-11-21T04:15:08;12.18;;;6.45;;
4198;SDS011;2113;50.946;14.610;2023-11-21T04:17:37;12.10;;;6.00;;
4198;SDS011;2113;50.946;14.610;2023-11-21T04:20:06;10.90;;;5.63;;
4198;SDS011;2113;50.946;14.610;2023-11-21T04:22:38;16.17;;;7.45;;
4198;SDS011;2113;50.946;14.610;2023-11-21T04:25:09;14.43;;;6.15;;
4198;SDS011;2113;50.946;14.610;2023-11-21T04:27:39;15.73;;;7.75;;
4198;SDS011;2113;50.946;14.610;2023-11-21T04:30:07;12.68;;;6.03;;
4198;SDS011;2113;50.946;14.610;2023-11-21T04:32:37;22.30;;;7.05;;
4198;SDS011;2113;50.946;14.610;2023-11-21T04:35:06;15.15;;;7.40;;
4198;SDS011;2113;50.946;14.610;2023-11-21T04:37:35;9.05;;;5.85;;
4198;SDS011;2113;50.946;14.610;2023-11-21T04:40:05;15.05;;;6.75;;
4198;SDS011;2113;50.946;14.610;2023-11-21T04:42:35;12.10;;;6.82;;
4198;SDS011;2113;50.946;14.610;2023-11-21T04:45:04;17.55;;;7.65;;
4198;SDS011;2113;50.946;14.610;2023-11-21T04:47:35;11.00;;;6.53;;
4198;SDS011;2113;50.946;14.610;2023-11-21T04:50:04;13.73;;;6.38;;
4198;SDS011;2113;50.946;14.610;2023-11-21T04:52:34;15.68;;;7.53;;
4198;SDS011;2113;50.946;14.610;2023-11-21T04:55:02;15.40;;;6.03;;
4198;SDS011;2113;50.946;14.610;2023-11-21T04:57:32;15.32;;;7.00;;
4198;SDS011;2113;50.946;14.610;2023-11-21T05:00:00;14.70;;;7.10;;
4198;SDS011;2113;50.946;14.610;2023-11-21T05:02:32;20.02;;;9.02;;
4198;SDS011;2113;50.946;14.610;2023-11-21T05:05:02;14.65;;;5.93;;
4198;SDS011;2113;50.946;14.610;2023-11-21T05:07:33;13.05;;;6.97;;
4198;SDS011;2113;50.946;14.610;2023-11-21T05:10:02;19.85;;;7.40;;
4198;SDS011;2113;50.946;14.610;2023-11-21T05:12:35;17.02;;;7.07;;
4198;SDS011;2113;50.946;14.610;2023-11-21T05:15:05;17.17;;;6.45;;
4198;SDS011;2113;50.946;14.610;2023-11-21T05:17:36;13.88;;;7.10;;
4198;SDS011;2113;50.946;14.610;2023-11-21T05:20:06;14.23;;;6.25;;
4198;SDS011;2113;50.946;14.610;2023-11-21T05:22:36;10.40;;;6.00;;
4198;SDS011;2113;50.946;14.610;2023-11-21T05:25:05;19.23;;;7.18;;
4198;SDS011;2113;50.946;14.610;2023-11-21T05:27:36;14.93;;;6.70;;
4198;SDS011;2113;50.946;14.610;2023-11-21T05:30:05;12.70;;;7.35;;
4198;SDS011;2113;50.946;14.610;2023-11-21T05:32:36;10.82;;;6.45;;
4198;SDS011;2113;50.946;14.610;2023-11-21T05:35:04;15.90;;;7.82;;
4198;SDS011;2113;50.946;14.610;2023-11-21T05:37:36;23.92;;;11.88;;
4198;SDS011;2113;50.946;14.610;2023-11-21T05:40:06;13.20;;;6.47;;
4198;SDS011;2113;50.946;14.610;2023-11-21T05:42:36;14.27;;;6.60;;
4198;SDS011;2113;50.946;14.610;2023-11-21T05:45:05;21.08;;;8.15;;
4198;SDS011;2113;50.946;14.610;2023-11-21T05:47:38;22.33;;;7.88;;
4198;SDS011;2113;50.946;14.610;2023-11-21T05:50:07;17.48;;;8.80;;
4198;SDS011;2113;50.946;14.610;2023-11-21T05:52:41;16.88;;;9.43;;
4198;SDS011;2113;50.946;14.610;2023-11-21T05:55:10;18.27;;;6.97;;
4198;SDS011;2113;50.946;14.610;2023-11-21T05:57:41;16.95;;;7.65;;
4198;SDS011;2113;50.946;14.610;2023-11-21T06:00:11;15.10;;;8.15;;
4198;SDS011;2113;50.946;14.610;2023-11-21T06:02:48;12.90;;;7.55;;
4198;SDS011;2113;50.946;14.610;2023-11-21T06:05:20;11.38;;;6.18;;
4198;SDS011;2113;50.946;14.610;2023-11-21T06:07:50;19.33;;;9.35;;
4198;SDS011;2113;50.946;14.610;2023-11-21T06:10:19;20.70;;;7.78;;
4198;SDS011;2113;50.946;14.610;2023-11-21T06:12:50;16.95;;;9.10;;
4198;SDS011;2113;50.946;14.610;2023-11-21T06:15:19;22.98;;;8.90;;
4198;SDS011;2113;50.946;14.610;2023-11-21T06:17:50;15.15;;;8.98;;
4198;SDS011;2113;50.946;14.610;2023-11-21T06:20:20;15.88;;;9.00;;
4198;SDS011;2113;50.946;14.610;2023-11-21T06:22:50;19.23;;;8.18;;
4198;SDS011;2113;50.946;14.610;2023-11-21T06:25:19;15.10;;;9.07;;
4198;SDS011;2113;50.946;14.610;2023-11-21T06:27:47;17.65;;;8.60;;
4198;SDS011;2113;50.946;14.610;2023-11-21T06:30:17;15.23;;;7.60;;
4198;SDS011;2113;50.946;14.610;2023-11-21T06:32:46;17.05;;;8.75;;
4198;SDS011;2113;50.946;14.610;2023-11-21T06:35:15;20.33;;;8.63;;
4198;SDS011;2113;50.946;14.610;2023-11-21T06:37:44;16.13;;;8.98;;
4198;SDS011;2113;50.946;14.610;2023-11-21T06:40:15;19.85;;;8.40;;
4198;SDS011;2113;50.946;14.610;2023-11-21T06:42:45;19.02;;;9.23;;
4198;SDS011;2113;50.946;14.610;2023-11-21T06:45:14;22.40;;;9.43;;
4198;SDS011;2113;50.946;14.610;2023-11-21T06:47:44;17.10;;;8.55;;
4198;SDS011;2113;50.946;14.610;2023-11-21T06:50:13;18.08;;;9.02;;
4198;SDS011;2113;50.946;14.610;2023-11-21T06:52:41;17.17;;;8.85;;
4198;SDS011;2113;50.946;14.610;2023-11-21T06:55:11;14.20;;;9.02;;
4198;SDS011;2113;50.946;14.610;2023-11-21T06:57:39;15.73;;;9.43;;
4198;SDS011;2113;50.946;14.610;2023-11-21T07:00:08;21.08;;;10.35;;
4198;SDS011;2113;50.946;14.610;2023-11-21T07:02:38;18.05;;;9.63;;
4198;SDS011;2113;50.946;14.610;2023-11-21T07:05:08;20.42;;;9.10;;
4198;SDS011;2113;50.946;14.610;2023-11-21T07:07:36;19.85;;;9.35;;
4198;SDS011;2113;50.946;14.610;2023-11-21T07:10:05;20.05;;;8.48;;
4198;SDS011;2113;50.946;14.610;2023-11-21T07:12:34;18.83;;;10.20;;
4198;SDS011;2113;50.946;14.610;2023-11-21T07:15:03;22.23;;;9.38;;
4198;SDS011;2113;50.946;14.610;2023-11-21T07:17:35;29.08;;;10.25;;
4198;SDS011;2113;50.946;14.610;2023-11-21T07:20:09;17.20;;;9.18;;
4198;SDS011;2113;50.946;14.610;2023-11-21T07:22:39;15.20;;;8.95;;
4198;SDS011;2113;50.946;14.610;2023-11-21T07:25:07;21.63;;;10.65;;
4198;SDS011;2113;50.946;14.610;2023-11-21T07:27:37;15.23;;;9.00;;
4198;SDS011;2113;50.946;14.610;2023-11-21T07:30:13;22.42;;;9.15;;
4198;SDS011;2113;50.946;14.610;2023-11-21T07:32:41;14.98;;;8.52;;
4198;SDS011;2113;50.946;14.610;2023-11-21T07:35:13;22.85;;;7.90;;
4198;SDS011;2113;50.946;14.610;2023-11-21T07:37:41;20.45;;;8.15;;
4198;SDS011;2113;50.946;14.610;2023-11-21T07:40:10;14.05;;;8.85;;
4198;SDS011;2113;50.946;14.610;2023-11-21T07:42:40;21.73;;;8.25;;
4198;SDS011;2113;50.946;14.610;2023-11-21T07:45:10;14.65;;;8.27;;
4198;SDS011;2113;50.946;14.610;2023-11-21T07:47:38;16.55;;;8.43;;
4198;SDS011;2113;50.946;14.610;2023-11-21T07:50:07;15.10;;;8.88;;
4198;SDS011;2113;50.946;14.610;2023-11-21T07:52:37;15.02;;;8.90;;
4198;SDS011;2113;50.946;14.610;2023-11-21T07:55:07;16.95;;;7.30;;
4198;SDS011;2113;50.946;14.610;2023-11-21T07:57:35;12.02;;;7.63;;
4198;SDS011;2113;50.946;14.610;2023-11-21T08:00:04;16.73;;;7.60;;
4198;SDS011;2113;50.946;14.610;2023-11-21T08:02:39;14.00;;;6.38;;
4198;SDS011;2113;50.946;14.610;2023-11-21T08:05:09;13.40;;;6.97;;
4198;SDS011;2113;50.946;14.610;2023-11-21T08:07:52;14.18;;;6.35;;
4198;SDS011;2113;50.946;14.610;2023-11-21T08:10:20;11.05;;;7.00;;
4198;SDS011;2113;50.946;14.610;2023-11-21T08:12:49;10.25;;;5.90;;
4198;SDS011;2113;50.946;14.610;2023-11-21T08:15:18;13.80;;;6.65;;
4198;SDS011;2113;50.946;14.610;2023-11-21T08:17:46;15.48;;;5.82;;
4198;SDS011;2113;50.946;14.610;2023-11-21T08:20:15;15.68;;;7.13;;
4198;SDS011;2113;50.946;14.610;2023-11-21T08:22:44;10.50;;;5.75;;
4198;SDS011;2113;50.946;14.610;2023-11-21T08:25:15;11.23;;;5.78;;
4198;SDS011;2113;50.946;14.610;2023-11-21T08:27:46;11.38;;;6.80;;
4198;SDS011;2113;50.946;14.610;2023-11-21T08:30:15;16.63;;;7.03;;
4198;SDS011;2113;50.946;14.610;2023-11-21T08:32:46;12.48;;;6.75;;
4198;SDS011;2113;50.946;14.610;2023-11-21T08:35:14;10.35;;;6.60;;
4198;SDS011;2113;50.946;14.610;2023-11-21T08:37:43;11.20;;;5.97;;
4198;SDS011;2113;50.946;14.610;2023-11-21T08:40:12;10.93;;;6.32;;
4198;SDS011;2113;50.946;14.610;2023-11-21T08:42:45;12.95;;;6.93;;
4198;SDS011;2113;50.946;14.610;2023-11-21T08:45:13;11.10;;;6.75;;
4198;SDS011;2113;50.946;14.610;2023-11-21T08:47:44;11.25;;;6.88;;
4198;SDS011;2113;50.946;14.610;2023-11-21T08:50:13;9.18;;;5.32;;
4198;SDS011;2113;50.946;14.610;2023-11-21T08:52:42;10.68;;;6.38;;
4198;SDS011;2113;50.946;14.610;2023-11-21T08:55:12;11.85;;;6.18;;
4198;SDS011;2113;50.946;14.610;2023-11-21T08:57:43;12.10;;;6.00;;
4198;SDS011;2113;50.946;14.610;2023-11-21T09:00:13;11.13;;;6.70;;
4198;SDS011;2113;50.946;14.610;2023-11-21T09:02:45;13.43;;;5.90;;
4198;SDS011;2113;50.946;14.610;2023-11-21T09:05:13;10.60;;;5.45;;
4198;SDS011;2113;50.946;14.610;2023-11-21T09:07:43;9.40;;;5.68;;
4198;SDS011;2113;50.946;14.610;2023-11-21T09:10:12;8.88;;;5.60;;
4198;SDS011;2113;50.946;14.610;2023-11-21T09:12:41;14.95;;;6.90;;
4198;SDS011;2113;50.946;14.610;2023-11-21T09:15:10;9.02;;;5.60;;
4198;SDS011;2113;50.946;14.610;2023-11-21T09:17:40;8.57;;;5.50;;
4198;SDS011;2113;50.946;14.610;2023-11-21T09:20:10;10.52;;;6.07;;
4198;SDS011;2113;50.946;14.610;2023-11-21T09:22:38;9.65;;;5.68;;
4198;SDS011;2113;50.946;14.610;2023-11-21T09:25:07;8.90;;;4.95;;
4198;SDS011;2113;50.946;14.610;2023-11-21T09:27:36;9.32;;;5.60;;
4198;SDS011;2113;50.946;14.610;2023-11-21T09:30:04;9.50;;;5.07;;
4198;SDS011;2113;50.946;14.610;2023-11-21T09:32:37;8.57;;;4.18;;
4198;SDS011;2113;50.946;14.610;2023-11-21T09:35:09;9.63;;;5.72;;
4198;SDS011;2113;50.946;14.610;2023-11-21T09:37:38;8.93;;;5.15;;
4198;SDS011;2113;50.946;14.610;2023-11-21T09:40:07;9.57;;;5.35;;
4198;SDS011;2113;50.946;14.610;2023-11-21T09:42:40;13.48;;;5.50;;
4198;SDS011;2113;50.946;14.610;2023-11-21T09:45:17;10.05;;;5.63;;
4198;SDS011;2113;50.946;14.610;2023-11-21T09:47:50;7.93;;;5.00;;
4198;SDS011;2113;50.946;14.610;2023-11-21T09:50:22;6.80;;;5.07;;
4198;SDS011;2113;50.946;14.610;2023-11-21T09:52:54;8.75;;;4.50;;
4198;SDS011;2113;50.946;14.610;2023-11-21T09:55:27;8.57;;;4.47;;
4198;SDS011;2113;50.946;14.610;2023-11-21T09:57:57;9.00;;;4.30;;
4198;SDS011;2113;50.946;14.610;2023-11-21T10:00:25;6.25;;;4.20;;
4198;SDS011;2113;50.946;14.610;2023-11-21T10:02:54;7.10;;;4.80;;
4198;SDS011;2113;50.946;14.610;2023-11-21T10:05:27;5.75;;;4.20;;
4198;SDS011;2113;50.946;14.610;2023-11-21T10:07:56;8.45;;;4.40;;
4198;SDS011;2113;50.946;14.610;2023-11-21T10:10:25;9.57;;;4.72;;
4198;SDS011;2113;50.946;14.610;2023-11-21T10:12:56;6.82;;;4.35;;
4198;SDS011;2113;50.946;14.610;2023-11-21T10:15:25;6.43;;;3.65;;
4198;SDS011;2113;50.946;14.610;2023-11-21T10:17:54;7.20;;;6.28;;
4198;SDS011;2113;50.946;14.610;2023-11-21T10:20:23;7.13;;;4.13;;
4198;SDS011;2113;50.946;14.610;2023-11-21T10:22:54;5.47;;;3.70;;
4198;SDS011;2113;50.946;14.610;2023-11-21T10:25:23;6.25;;;3.67;;
4198;SDS011;2113;50.946;14.610;2023-11-21T10:27:56;6.07;;;3.92;;
4198;SDS011;2113;50.946;14.610;2023-11-21T10:30:27;6.47;;;5.03;;
4198;SDS011;2113;50.946;14.610;2023-11-21T10:33:00;4.15;;;3.00;;
4198;SDS011;2113;50.946;14.610;2023-11-21T10:35:39;6.47;;;3.25;;
4198;SDS011;2113;50.946;14.610;2023-11-21T10:38:15;3.28;;;2.20;;
4198;SDS011;2113;50.946;14.610;2023-11-21T10:40:44;4.57;;;2.50;;
4198;SDS011;2113;50.946;14.610;2023-11-21T10:43:13;3.60;;;2.63;;
4198;SDS011;2113;50.946;14.610;2023-11-21T10:45:43;3.83;;;3.22;;
4198;SDS011;2113;50.946;14.610;2023-11-21T10:48:12;3.42;;;2.88;;
4198;SDS011;2113;50.946;14.610;2023-11-21T10:50:47;4.72;;;3.47;;
4198;SDS011;2113;50.946;14.610;2023-11-21T10:53:18;4.80;;;3.03;;
4198;SDS011;2113;50.946;14.610;2023-11-21T10:55:46;3.35;;;2.53;;
4198;SDS011;2113;50.946;14.610;2023-11-21T10:58:15;3.20;;;2.58;;
4198;SDS011;2113;50.946;14.610;2023-11-21T11:00:44;3.45;;;3.03;;
4198;SDS011;2113;50.946;14.610;2023-11-21T11:03:13;5.13;;;3.30;;
4198;SDS011;2113;50.946;14.610;2023-11-21T11:05:43;3.90;;;2.95;;
4198;SDS011;2113;50.946;14.610;2023-11-21T11:08:21;4.95;;;3.60;;
4198;SDS011;2113;50.946;14.610;2023-11-21T11:10:54;4.53;;;3.13;;
4198;SDS011;2113;50.946;14.610;2023-11-21T11:13:23;4.90;;;3.38;;
4198;SDS011;2113;50.946;14.610;2023-11-21T11:15:55;5.28;;;3.85;;
4198;SDS011;2113;50.946;14.610;2023-11-21T11:18:27;4.57;;;3.65;;
4198;SDS011;2113;50.946;14.610;2023-11-21T11:20:57;5.25;;;4.22;;
4198;SDS011;2113;50.946;14.610;2023-11-21T11:23:44;6.18;;;4.35;;
4198;SDS011;2113;50.946;14.610;2023-11-21T11:26:28;4.72;;;3.40;;
4198;SDS011;2113;50.946;14.610;2023-11-21T11:29:08;5.63;;;4.03;;
4198;SDS011;2113;50.946;14.610;2023-11-21T11:31:45;6.75;;;3.40;;
4198;SDS011;2113;50.946;14.610;2023-11-21T11:34:24;6.40;;;4.47;;
4198;SDS011;2113;50.946;14.610;2023-11-21T11:37:00;5.95;;;4.25;;
4198;SDS011;2113;50.946;14.610;2023-11-21T11:39:35;6.68;;;4.82;;
4198;SDS011;2113;50.946;14.610;2023-11-21T11:42:06;6.80;;;4.70;;
4198;SDS011;2113;50.946;14.610;2023-11-21T11:44:48;8.07;;;5.15;;
4198;SDS011;2113;50.946;14.610;2023-11-21T11:47:24;7.22;;;5.22;;
4198;SDS011;2113;50.946;14.610;2023-11-21T11:50:00;10.73;;;5.18;;
4198;SDS011;2113;50.946;14.610;2023-11-21T11:52:34;16.45;;;6.10;;
4198;SDS011;2113;50.946;14.610;2023-11-21T11:55:07;15.18;;;6.40;;
4198;SDS011;2113;50.946;14.610;2023-11-21T11:57:38;24.95;;;9.35;;
4198;SDS011;2113;50.946;14.610;2023-11-21T12:00:07;31.80;;;8.95;;
4198;SDS011;2113;50.946;14.610;2023-11-21T12:02:47;22.15;;;8.07;;
4198;SDS011;2113;50.946;14.610;2023-11-21T12:05:16;26.05;;;7.80;;
4198;SDS011;2113;50.946;14.610;2023-11-21T12:07:46;32.03;;;9.07;;
4198;SDS011;2113;50.946;14.610;2023-11-21T12:10:17;17.00;;;7.57;;
4198;SDS011;2113;50.946;14.610;2023-11-21T12:12:47;13.52;;;7.20;;
4198;SDS011;2113;50.946;14.610;2023-11-21T12:15:16;16.67;;;7.03;;
4198;SDS011;2113;50.946;14.610;2023-11-21T12:17:44;18.75;;;8.30;;
4198;SDS011;2113;50.946;14.610;2023-11-21T12:20:13;17.25;;;8.93;;
4198;SDS011;2113;50.946;14.610;2023-11-21T12:22:44;13.35;;;8.05;;
4198;SDS011;2113;50.946;14.610;2023-11-21T12:25:17;17.10;;;9.77;;
4198;SDS011;2113;50.946;14.610;2023-11-21T12:27:46;14.63;;;9.13;;
4198;SDS011;2113;50.946;14.610;2023-11-21T12:30:17;15.55;;;8.18;;
4198;SDS011;2113;50.946;14.610;2023-11-21T12:32:48;19.67;;;7.68;;
4198;SDS011;2113;50.946;14.610;2023-11-21T12:35:18;15.50;;;8.68;;
4198;SDS011;2113;50.946;14.610;2023-11-21T12:37:48;25.75;;;10.70;;
4198;SDS011;2113;50.946;14.610;2023-11-21T12:40:19;24.85;;;11.00;;
4198;SDS011;2113;50.946;14.610;2023-11-21T12:42:51;22.50;;;9.50;;
4198;SDS011;2113;50.946;14.610;2023-11-21T12:45:20;22.48;;;9.40;;
4198;SDS011;2113;50.946;14.610;2023-11-21T12:47:54;25.42;;;10.57;;
4198;SDS011;2113;50.946;14.610;2023-11-21T12:50:27;20.88;;;9.85;;
4198;SDS011;2113;50.946;14.610;2023-11-21T12:52:59;29.70;;;11.60;;
4198;SDS011;2113;50.946;14.610;2023-11-21T12:55:31;59.63;;;11.60;;
4198;SDS011;2113;50.946;14.610;2023-11-21T12:58:02;29.65;;;12.35;;
4198;SDS011;2113;50.946;14.610;2023-11-21T13:00:37;31.17;;;12.73;;
4198;SDS011;2113;50.946;14.610;2023-11-21T13:03:10;151.60;;;19.73;;
4198;SDS011;2113;50.946;14.610;2023-11-21T13:05:44;63.42;;;14.35;;
4198;SDS011;2113;50.946;14.610;2023-11-21T13:08:14;75.25;;;16.98;;
4198;SDS011;2113;50.946;14.610;2023-11-21T13:10:49;94.47;;;20.85;;
4198;SDS011;2113;50.946;14.610;2023-11-21T13:13:21;160.60;;;23.13;;
4198;SDS011;2113;50.946;14.610;2023-11-21T13:15:51;118.45;;;18.45;;
4198;SDS011;2113;50.946;14.610;2023-11-21T13:18:23;76.15;;;17.35;;
4198;SDS011;2113;50.946;14.610;2023-11-21T13:20:53;172.95;;;25.70;;
4198;SDS011;2113;50.946;14.610;2023-11-21T13:23:23;168.30;;;24.58;;
4198;SDS011;2113;50.946;14.610;2023-11-21T13:25:53;166.98;;;25.00;;
4198;SDS011;2113;50.946;14.610;2023-11-21T13:28:30;188.32;;;24.63;;
4198;SDS011;2113;50.946;14.610;2023-11-21T13:31:00;173.48;;;24.52;;
4198;SDS011;2113;50.946;14.610;2023-11-21T13:33:37;158.23;;;23.52;;
4198;SDS011;2113;50.946;14.610;2023-11-21T13:36:08;58.00;;;14.10;;
4198;SDS011;2113;50.946;14.610;2023-11-21T13:38:37;128.20;;;22.13;;
4198;SDS011;2113;50.946;14.610;2023-11-21T13:41:11;63.78;;;16.05;;
4198;SDS011;2113;50.946;14.610;2023-11-21T13:43:41;132.23;;;27.70;;
4198;SDS011;2113;50.946;14.610;2023-11-21T13:46:15;82.18;;;16.30;;
4198;SDS011;2113;50.946;14.610;2023-11-21T13:48:49;66.32;;;16.15;;
4198;SDS011;2113;50.946;14.610;2023-11-21T13:51:23;50.63;;;13.60;;
4198;SDS011;2113;50.946;14.610;2023-11-21T13:54:04;50.78;;;12.40;;
4198;SDS011;2113;50.946;14.610;2023-11-21T13:56:37;39.67;;;12.18;;
4198;SDS011;2113;50.946;14.610;2023-11-21T13:59:08;46.58;;;14.52;;
4198;SDS011;2113;50.946;14.610;2023-11-21T14:01:45;40.05;;;13.10;;
4198;SDS011;2113;50.946;14.610;2023-11-21T14:04:22;35.22;;;12.00;;
4198;SDS011;2113;50.946;14.610;2023-11-21T14:07:13;43.30;;;13.35;;
4198;SDS011;2113;50.946;14.610;2023-11-21T14:09:52;31.30;;;10.85;;
4198;SDS011;2113;50.946;14.610;2023-11-21T14:12:23;39.97;;;10.27;;
4198;SDS011;2113;50.946;14.610;2023-11-21T14:14:52;23.50;;;9.77;;
4198;SDS011;2113;50.946;14.610;2023-11-21T14:17:21;15.60;;;8.80;;
4198;SDS011;2113;50.946;14.610;2023-11-21T14:19:51;21.40;;;9.00;;
4198;SDS011;2113;50.946;14.610;2023-11-21T14:22:23;29.02;;;10.25;;
4198;SDS011;2113;50.946;14.610;2023-11-21T14:24:53;18.85;;;9.10;;
4198;SDS011;2113;50.946;14.610;2023-11-21T14:27:27;19.42;;;9.07;;
4198;SDS011;2113;50.946;14.610;2023-11-21T14:29:55;23.08;;;9.27;;
4198;SDS011;2113;50.946;14.610;2023-11-21T14:32:25;15.27;;;8.32;;
4198;SDS011;2113;50.946;14.610;2023-11-21T14:34:53;15.70;;;8.27;;
4198;SDS011;2113;50.946;14.610;2023-11-21T14:37:21;11.40;;;6.95;;
4198;SDS011;2113;50.946;14.610;2023-11-21T14:39:50;14.73;;;6.65;;
4198;SDS011;2113;50.946;14.610;2023-11-21T14:42:18;16.05;;;5.90;;
4198;SDS011;2113;50.946;14.610;2023-11-21T14:44:53;11.25;;;5.22;;
4198;SDS011;2113;50.946;14.610;2023-11-21T14:47:26;10.07;;;5.97;;
4198;SDS011;2113;50.946;14.610;2023-11-21T14:49:55;8.90;;;4.50;;
4198;SDS011;2113;50.946;14.610;2023-11-21T14:52:27;11.05;;;5.22;;
4198;SDS011;2113;50.946;14.610;2023-11-21T14:55:02;8.55;;;5.05;;
4198;SDS011;2113;50.946;14.610;2023-11-21T14:57:49;8.40;;;3.45;;
4198;SDS011;2113;50.946;14.610;2023-11-21T15:00:20;7.97;;;4.25;;
4198;SDS011;2113;50.946;14.610;2023-11-21T15:03:11;9.88;;;5.05;;
4198;SDS011;2113;50.946;14.610;2023-11-21T15:06:02;9.93;;;4.50;;
4198;SDS011;2113;50.946;14.610;2023-11-21T15:08:49;9.88;;;5.53;;
4198;SDS011;2113;50.946;14.610;2023-11-21T15:11:43;9.57;;;4.97;;
4198;SDS011;2113;50.946;14.610;2023-11-21T15:14:14;14.45;;;6.38;;
4198;SDS011;2113;50.946;14.610;2023-11-21T15:16:49;14.52;;;6.88;;